createdAt,value
2023-05-08T00:02:06.894Z,14.80
2023-05-08T00:04:34.016Z,14.80
2023-05-08T00:07:01.151Z,14.80
2023-05-08T00:09:28.285Z,14.60
2023-05-08T00:11:55.316Z,14.70
2023-05-08T00:14:22.341Z,14.60
2023-05-08T00:16:49.427Z,14.50
2023-05-08T00:19:16.534Z,14.70
2023-05-08T00:21:43.573Z,14.90
2023-05-08T00:24:10.662Z,15.00
2023-05-08T00:26:37.767Z,14.70
2023-05-08T00:29:06.581Z,14.60
2023-05-08T00:31:34.113Z,14.70
2023-05-08T00:34:01.238Z,14.60
2023-05-08T00:36:28.478Z,14.30
2023-05-08T00:38:55.736Z,14.50
2023-05-08T00:41:22.853Z,14.50
2023-05-08T00:43:49.967Z,14.40
2023-05-08T00:46:17.442Z,14.40
2023-05-08T00:48:45.439Z,14.40
2023-05-08T00:51:13.126Z,14.30
2023-05-08T00:53:43.048Z,14.40
2023-05-08T00:56:12.872Z,14.30
2023-05-08T00:58:41.208Z,13.80
2023-05-08T01:01:08.613Z,13.50
2023-05-08T01:03:36.756Z,13.50
2023-05-08T01:06:04.469Z,13.70
2023-05-08T01:08:32.157Z,13.60
2023-05-08T01:11:23.561Z,13.60
2023-05-08T01:14:06.025Z,13.40
2023-05-08T01:16:45.277Z,13.30
2023-05-08T01:19:39.292Z,13.20
2023-05-08T01:22:06.248Z,13.40
2023-05-08T01:25:21.600Z,13.40
2023-05-08T01:28:18.144Z,13.50
2023-05-08T01:31:27.380Z,13.70
2023-05-08T01:34:05.012Z,13.40
2023-05-08T01:37:05.517Z,13.60
2023-05-08T01:39:59.040Z,13.90
2023-05-08T01:42:29.056Z,13.60
2023-05-08T01:45:20.041Z,13.70
2023-05-08T01:47:55.791Z,13.60
2023-05-08T01:50:31.158Z,13.40
2023-05-08T01:53:08.077Z,13.50
2023-05-08T01:55:37.657Z,13.40
2023-05-08T01:58:11.027Z,13.50
2023-05-08T02:00:41.581Z,13.40
2023-05-08T02:03:11.533Z,13.50
2023-05-08T02:05:40.532Z,13.60
2023-05-08T02:08:09.833Z,13.60
2023-05-08T02:10:38.070Z,13.50
2023-05-08T02:13:06.540Z,13.20
2023-05-08T02:15:36.734Z,13.40
2023-05-08T02:18:08.891Z,13.40
2023-05-08T02:20:37.652Z,13.30
2023-05-08T02:23:05.410Z,13.20
2023-05-08T02:25:33.476Z,13.40
2023-05-08T02:28:01.205Z,13.40
2023-05-08T02:30:29.415Z,13.50
2023-05-08T02:33:00.571Z,13.40
2023-05-08T02:35:31.001Z,13.40
2023-05-08T02:37:59.365Z,13.40
2023-05-08T02:40:29.609Z,13.40
2023-05-08T02:42:57.341Z,13.20
2023-05-08T02:45:28.909Z,13.20
2023-05-08T02:48:02.218Z,13.20
2023-05-08T02:50:50.911Z,13.30
2023-05-08T02:53:26.856Z,13.30
2023-05-08T02:56:00.653Z,13.30
2023-05-08T02:58:46.070Z,13.20
2023-05-08T03:01:27.383Z,12.90
2023-05-08T03:04:31.973Z,12.90
2023-05-08T03:07:01.807Z,13.10
2023-05-08T03:09:38.746Z,13.10
2023-05-08T03:12:13.201Z,13.00
2023-05-08T03:14:47.156Z,13.10
2023-05-08T03:17:17.170Z,12.90
2023-05-08T03:19:49.809Z,13.00
2023-05-08T03:22:20.514Z,13.00
2023-05-08T03:24:49.500Z,13.00
2023-05-08T03:27:17.867Z,13.00
2023-05-08T03:29:46.341Z,12.90
2023-05-08T03:32:14.939Z,13.00
2023-05-08T03:34:42.443Z,12.80
2023-05-08T03:37:09.504Z,13.00
2023-05-08T03:39:37.143Z,12.80
2023-05-08T03:42:05.027Z,12.70
2023-05-08T03:44:33.436Z,12.80
2023-05-08T03:47:01.108Z,12.80
2023-05-08T03:49:31.367Z,12.80
2023-05-08T03:51:59.506Z,12.80
2023-05-08T03:54:28.638Z,12.90
2023-05-08T03:56:56.345Z,12.90
2023-05-08T03:59:50.157Z,12.80
2023-05-08T04:02:28.611Z,12.90
2023-05-08T04:05:04.817Z,12.70
2023-05-08T04:07:53.932Z,12.90
2023-05-08T04:10:33.360Z,12.70
2023-05-08T04:13:08.739Z,12.80
2023-05-08T04:15:56.817Z,12.70
2023-05-08T04:18:30.203Z,12.90
2023-05-08T04:21:01.789Z,12.60
2023-05-08T04:23:30.448Z,12.50
2023-05-08T04:25:59.953Z,12.30
2023-05-08T04:28:27.543Z,12.40
2023-05-08T04:30:56.780Z,12.50
2023-05-08T04:33:25.142Z,12.60
2023-05-08T04:35:52.878Z,12.60
2023-05-08T04:38:19.980Z,12.60
2023-05-08T04:40:47.251Z,12.70
2023-05-08T04:43:14.360Z,12.70
2023-05-08T04:45:41.521Z,12.60
2023-05-08T04:48:08.872Z,12.60
2023-05-08T04:50:36.042Z,12.70
2023-05-08T04:53:03.155Z,12.60
2023-05-08T04:55:30.334Z,12.50
2023-05-08T04:57:57.700Z,12.60
2023-05-08T05:00:25.068Z,12.60
2023-05-08T05:02:52.788Z,12.80
2023-05-08T05:05:21.215Z,12.70
2023-05-08T05:07:48.288Z,12.70
2023-05-08T05:10:15.936Z,12.70
2023-05-08T05:12:43.113Z,12.80
2023-05-08T05:15:10.837Z,12.60
2023-05-08T05:17:38.976Z,12.60
2023-05-08T05:20:08.814Z,12.70
2023-05-08T05:22:36.285Z,12.70
2023-05-08T05:25:04.078Z,12.70
2023-05-08T05:27:31.424Z,12.50
2023-05-08T05:29:59.047Z,12.60
2023-05-08T05:32:27.207Z,12.70
2023-05-08T05:34:54.961Z,12.50
2023-05-08T05:37:22.321Z,12.50
2023-05-08T05:39:49.550Z,12.40
2023-05-08T05:42:16.706Z,12.60
2023-05-08T05:44:43.781Z,12.60
2023-05-08T05:47:11.762Z,12.70
2023-05-08T05:49:46.815Z,12.70
2023-05-08T05:52:14.722Z,12.70
2023-05-08T05:54:42.659Z,12.70
2023-05-08T05:57:10.124Z,12.80
2023-05-08T05:59:37.469Z,12.60
2023-05-08T06:02:04.768Z,12.70
2023-05-08T06:04:32.026Z,12.70
2023-05-08T06:06:59.145Z,12.70
2023-05-08T06:09:26.156Z,12.80
2023-05-08T06:11:53.176Z,12.80
2023-05-08T06:14:20.517Z,12.90
2023-05-08T06:16:47.933Z,12.80
2023-05-08T06:19:15.910Z,12.80
2023-05-08T06:21:43.008Z,12.80
2023-05-08T06:24:10.124Z,12.90
2023-05-08T06:26:37.420Z,12.90
2023-05-08T06:29:04.472Z,12.80
2023-05-08T06:31:31.644Z,12.90
2023-05-08T06:33:58.809Z,13.00
2023-05-08T06:36:27.260Z,13.10
2023-05-08T06:38:54.396Z,12.90
2023-05-08T06:41:21.877Z,13.00
2023-05-08T06:43:48.986Z,13.10
2023-05-08T06:46:16.316Z,13.10
2023-05-08T06:48:43.428Z,13.20
2023-05-08T06:51:10.648Z,13.20
2023-05-08T06:53:37.925Z,13.20
2023-05-08T06:56:05.910Z,13.20
2023-05-08T06:58:33.086Z,13.30
2023-05-08T07:01:01.851Z,13.10
2023-05-08T07:03:28.967Z,13.10
2023-05-08T07:05:56.395Z,13.20
2023-05-08T07:08:23.447Z,13.30
2023-05-08T07:10:50.607Z,13.30
2023-05-08T07:13:21.763Z,13.30
2023-05-08T07:15:49.159Z,13.40
2023-05-08T07:18:16.240Z,13.40
2023-05-08T07:20:43.281Z,13.50
2023-05-08T07:23:10.362Z,13.60
2023-05-08T07:25:37.418Z,13.50
2023-05-08T07:28:04.711Z,13.70
2023-05-08T07:30:31.785Z,13.70
2023-05-08T07:32:58.888Z,13.70
2023-05-08T07:35:26.118Z,13.70
2023-05-08T07:37:53.257Z,13.80
2023-05-08T07:40:20.350Z,13.90
2023-05-08T07:42:47.382Z,13.80
2023-05-08T07:45:14.771Z,13.80
2023-05-08T07:47:56.732Z,14.00
2023-05-08T07:50:25.224Z,14.10
2023-05-08T07:52:53.076Z,14.00
2023-05-08T07:55:20.692Z,14.00
2023-05-08T07:57:47.809Z,14.10
2023-05-08T08:00:15.833Z,14.20
2023-05-08T08:02:44.870Z,14.10
2023-05-08T08:05:12.682Z,14.30
2023-05-08T08:07:40.024Z,14.30
2023-05-08T08:10:08.012Z,14.40
2023-05-08T08:12:35.164Z,14.30
2023-05-08T08:15:02.270Z,14.30
2023-05-08T08:17:29.653Z,14.40
2023-05-08T08:19:57.298Z,14.40
2023-05-08T08:22:25.924Z,14.60
2023-05-08T08:24:55.890Z,14.60
2023-05-08T08:27:23.493Z,14.70
2023-05-08T08:29:52.502Z,14.70
2023-05-08T08:32:26.008Z,14.80
2023-05-08T08:34:53.224Z,14.80
2023-05-08T08:37:20.265Z,14.80
2023-05-08T08:39:48.519Z,14.90
2023-05-08T08:42:15.733Z,15.00
2023-05-08T08:44:43.050Z,15.00
2023-05-08T08:47:14.338Z,15.00
2023-05-08T08:49:47.573Z,15.00
2023-05-08T08:52:43.469Z,15.10
2023-05-08T08:55:15.262Z,15.20
2023-05-08T08:57:51.270Z,15.30
2023-05-08T09:00:21.291Z,15.30
2023-05-08T09:02:49.056Z,15.40
2023-05-08T09:05:16.301Z,15.40
2023-05-08T09:07:44.031Z,15.50
2023-05-08T09:10:15.495Z,15.50
2023-05-08T09:12:42.875Z,15.60
2023-05-08T09:15:10.266Z,15.60
2023-05-08T09:17:37.464Z,15.70
2023-05-08T09:20:05.465Z,15.70
2023-05-08T09:22:35.980Z,15.70
2023-05-08T09:25:04.053Z,15.80
2023-05-08T09:27:32.395Z,15.90
2023-05-08T09:30:07.018Z,16.00
2023-05-08T09:32:35.802Z,16.10
2023-05-08T09:35:03.606Z,16.20
2023-05-08T09:37:31.177Z,16.30
2023-05-08T09:40:13.524Z,16.30
2023-05-08T09:42:41.097Z,16.40
2023-05-08T09:45:08.698Z,16.60
2023-05-08T09:47:37.507Z,16.60
2023-05-08T09:50:07.322Z,16.80
2023-05-08T09:52:36.770Z,16.80
2023-05-08T09:55:05.724Z,16.90
2023-05-08T09:57:36.602Z,16.90
2023-05-08T10:00:13.993Z,16.90
2023-05-08T10:02:53.701Z,16.90
2023-05-08T10:05:34.600Z,16.80
2023-05-08T10:08:21.430Z,16.90
2023-05-08T10:10:48.640Z,16.90
2023-05-08T10:13:15.829Z,16.90
2023-05-08T10:15:44.232Z,17.10
2023-05-08T10:18:14.785Z,17.10
2023-05-08T10:20:45.216Z,17.10
2023-05-08T10:23:17.554Z,17.10
2023-05-08T10:25:54.749Z,17.10
2023-05-08T10:28:57.972Z,17.20
2023-05-08T10:31:35.901Z,17.30
2023-05-08T10:34:04.193Z,17.60
2023-05-08T10:36:32.524Z,17.70
2023-05-08T10:38:59.643Z,17.70
2023-05-08T10:41:27.926Z,17.70
2023-05-08T10:43:55.505Z,17.60
2023-05-08T10:47:14.073Z,17.60
2023-05-08T10:50:04.141Z,17.70
2023-05-08T10:52:57.391Z,17.80
2023-05-08T10:55:31.075Z,17.80
2023-05-08T10:58:33.147Z,17.60
2023-05-08T11:01:00.164Z,17.70
2023-05-08T11:03:32.677Z,17.80
2023-05-08T11:06:01.584Z,17.80
2023-05-08T11:08:30.136Z,17.90
2023-05-08T11:11:00.472Z,17.90
2023-05-08T11:13:33.491Z,17.90
2023-05-08T11:16:01.216Z,18.00
2023-05-08T11:18:41.768Z,18.00
2023-05-08T11:21:20.521Z,18.20
2023-05-08T11:23:57.691Z,18.20
2023-05-08T11:26:42.233Z,18.30
2023-05-08T11:29:18.602Z,18.20
2023-05-08T11:31:53.134Z,18.20
2023-05-08T11:34:42.586Z,18.10
2023-05-08T11:37:20.853Z,17.90
2023-05-08T11:39:48.519Z,18.00
2023-05-08T11:42:27.635Z,18.00
2023-05-08T11:45:06.773Z,18.00
2023-05-08T11:47:42.917Z,18.20
2023-05-08T11:50:11.800Z,18.20
2023-05-08T11:52:40.905Z,18.30
2023-05-08T11:55:09.963Z,18.30
2023-05-08T11:57:37.549Z,18.30
2023-05-08T12:00:13.937Z,18.30
2023-05-08T12:02:43.587Z,18.30
2023-05-08T12:05:11.871Z,18.40
2023-05-08T12:07:48.195Z,18.50
2023-05-08T12:10:16.786Z,18.40
2023-05-08T12:12:45.492Z,18.40
2023-05-08T12:15:15.099Z,18.40
2023-05-08T12:17:42.916Z,18.60
2023-05-08T12:20:19.585Z,18.80
2023-05-08T12:22:53.851Z,18.80
2023-05-08T12:25:21.011Z,18.90
2023-05-08T12:27:48.117Z,19.00
2023-05-08T12:30:16.508Z,19.00
2023-05-08T12:32:44.597Z,19.20
2023-05-08T12:35:12.776Z,19.30
2023-05-08T12:37:40.511Z,19.30
2023-05-08T12:40:08.950Z,19.30
2023-05-08T12:42:46.375Z,19.30
2023-05-08T12:45:28.162Z,19.30
2023-05-08T12:48:00.938Z,19.20
2023-05-08T12:50:30.619Z,19.30
2023-05-08T12:53:09.380Z,19.50
2023-05-08T12:55:37.842Z,19.60
2023-05-08T12:58:06.074Z,19.50
2023-05-08T13:00:49.650Z,19.70
2023-05-08T13:03:29.127Z,19.80
2023-05-08T13:05:57.970Z,20.50
2023-05-08T13:08:38.907Z,20.40
2023-05-08T13:11:06.947Z,20.80
2023-05-08T13:13:35.837Z,20.80
2023-05-08T13:16:07.943Z,21.20
2023-05-08T13:18:38.159Z,21.40
2023-05-08T13:21:05.486Z,21.40
2023-05-08T13:23:32.595Z,21.40
2023-05-08T13:25:59.654Z,21.30
2023-05-08T13:28:26.688Z,21.00
2023-05-08T13:30:53.721Z,21.20
2023-05-08T13:33:20.776Z,21.10
2023-05-08T13:35:47.878Z,21.00
2023-05-08T13:38:15.059Z,20.90
2023-05-08T13:40:42.122Z,21.00
2023-05-08T13:43:09.162Z,21.00
2023-05-08T13:45:36.262Z,20.90
2023-05-08T13:48:03.537Z,20.80
2023-05-08T13:50:30.782Z,20.90
2023-05-08T13:52:57.842Z,20.90
2023-05-08T13:55:24.982Z,21.20
2023-05-08T13:57:52.151Z,21.30
2023-05-08T14:00:19.614Z,21.20
2023-05-08T14:02:46.777Z,21.50
2023-05-08T14:05:14.035Z,21.40
2023-05-08T14:07:41.359Z,21.20
2023-05-08T14:10:08.759Z,20.70
2023-05-08T14:12:36.573Z,20.80
2023-05-08T14:15:05.619Z,20.70
2023-05-08T14:17:32.831Z,20.70
2023-05-08T14:20:00.373Z,20.70
2023-05-08T14:22:27.496Z,20.60
2023-05-08T14:24:54.684Z,20.70
2023-05-08T14:27:21.899Z,20.50
2023-05-08T14:29:49.376Z,20.40
2023-05-08T14:32:16.676Z,20.40
2023-05-08T14:34:43.777Z,20.10
2023-05-08T14:37:11.607Z,20.10
2023-05-08T14:39:38.722Z,20.10
2023-05-08T14:42:21.999Z,20.10
2023-05-08T14:44:49.870Z,20.00
2023-05-08T14:47:16.991Z,19.80
2023-05-08T14:49:44.072Z,19.60
2023-05-08T14:52:11.113Z,19.70
2023-05-08T14:54:38.453Z,19.80
2023-05-08T14:57:05.728Z,19.80
2023-05-08T14:59:32.862Z,19.60
2023-05-08T15:02:00.097Z,19.60
2023-05-08T15:04:27.306Z,19.60
2023-05-08T15:06:54.358Z,19.50
2023-05-08T15:09:21.389Z,19.70
2023-05-08T15:11:48.589Z,19.70
2023-05-08T15:14:15.822Z,19.50
2023-05-08T15:16:42.890Z,19.40
2023-05-08T15:19:10.028Z,19.40
2023-05-08T15:21:37.054Z,19.50
2023-05-08T15:24:04.328Z,19.40
2023-05-08T15:26:31.584Z,19.50
2023-05-08T15:28:58.636Z,19.30
2023-05-08T15:31:25.800Z,19.40
2023-05-08T15:33:52.893Z,19.40
2023-05-08T15:36:20.021Z,19.20
2023-05-08T15:38:49.177Z,19.20
2023-05-08T15:41:16.353Z,19.40
2023-05-08T15:43:45.380Z,19.40
2023-05-08T15:46:12.788Z,19.50
2023-05-08T15:48:39.948Z,19.50
2023-05-08T15:51:07.045Z,19.30
2023-05-08T15:53:34.679Z,19.30
2023-05-08T15:56:01.739Z,19.30
2023-05-08T15:58:28.841Z,19.30
2023-05-08T16:00:57.014Z,19.20
2023-05-08T16:03:24.581Z,19.30
2023-05-08T16:05:51.840Z,19.20
2023-05-08T16:08:18.939Z,19.00
2023-05-08T16:10:46.162Z,19.10
2023-05-08T16:13:13.258Z,19.10
2023-05-08T16:15:40.677Z,19.10
2023-05-08T16:18:08.267Z,19.10
2023-05-08T16:20:36.321Z,18.90
2023-05-08T16:23:03.698Z,18.80
2023-05-08T16:25:30.896Z,18.80
2023-05-08T16:27:57.935Z,18.80
2023-05-08T16:30:25.113Z,18.80
2023-05-08T16:32:52.270Z,18.90
2023-05-08T16:35:19.742Z,19.00
2023-05-08T16:37:47.014Z,18.70
2023-05-08T16:40:14.245Z,18.70
2023-05-08T16:42:41.421Z,18.70
2023-05-08T16:45:09.030Z,18.70
2023-05-08T16:47:36.587Z,18.70
2023-05-08T16:50:04.943Z,18.70
2023-05-08T16:52:33.049Z,18.80
2023-05-08T16:55:00.526Z,18.80
2023-05-08T16:57:27.772Z,18.70
2023-05-08T16:59:54.842Z,18.60
2023-05-08T17:02:22.104Z,18.60
2023-05-08T17:04:49.874Z,18.70
2023-05-08T17:07:17.573Z,18.50
2023-05-08T17:09:45.196Z,18.40
2023-05-08T17:12:12.315Z,18.40
2023-05-08T17:14:40.566Z,18.40
2023-05-08T17:17:08.235Z,18.40
2023-05-08T17:19:35.378Z,18.30
2023-05-08T17:22:02.862Z,18.20
2023-05-08T17:24:30.875Z,18.30
2023-05-08T17:26:58.415Z,18.20
2023-05-08T17:29:25.480Z,18.20
2023-05-08T17:31:52.768Z,18.10
2023-05-08T17:34:20.189Z,18.20
2023-05-08T17:36:47.309Z,18.30
2023-05-08T17:39:14.943Z,18.30
2023-05-08T17:41:42.037Z,18.20
2023-05-08T17:44:09.071Z,18.10
2023-05-08T17:46:36.299Z,18.00
2023-05-08T17:49:03.566Z,18.20
2023-05-08T17:51:31.530Z,17.90
2023-05-08T17:53:58.637Z,18.00
2023-05-08T17:56:25.897Z,17.90
2023-05-08T17:58:53.552Z,17.80
2023-05-08T18:01:20.719Z,17.80
2023-05-08T18:03:48.539Z,17.90
2023-05-08T18:06:16.968Z,17.80
2023-05-08T18:08:44.886Z,17.90
2023-05-08T18:11:23.716Z,17.80
2023-05-08T18:13:52.245Z,17.70
2023-05-08T18:16:21.168Z,17.60
2023-05-08T18:18:49.469Z,17.50
2023-05-08T18:21:16.649Z,17.60
2023-05-08T18:23:43.804Z,17.50
2023-05-08T18:26:15.240Z,17.40
2023-05-08T18:28:42.472Z,17.30
2023-05-08T18:31:09.772Z,17.30
2023-05-08T18:33:37.337Z,17.30
2023-05-08T18:36:07.003Z,17.40
2023-05-08T18:38:34.898Z,17.40
2023-05-08T18:41:03.510Z,17.30
2023-05-08T18:43:30.680Z,17.40
2023-05-08T18:45:59.098Z,17.30
2023-05-08T18:48:26.587Z,17.20
2023-05-08T18:50:55.843Z,17.20
2023-05-08T18:53:22.918Z,17.10
2023-05-08T18:55:49.918Z,17.10
2023-05-08T18:58:17.087Z,17.10
2023-05-08T19:00:44.142Z,17.10
2023-05-08T19:03:11.263Z,17.00
2023-05-08T19:05:38.446Z,17.00
2023-05-08T19:08:05.640Z,16.90
2023-05-08T19:10:32.886Z,17.00
2023-05-08T19:13:02.241Z,16.90
2023-05-08T19:15:29.356Z,17.00
2023-05-08T19:17:56.586Z,16.90
2023-05-08T19:20:23.784Z,16.80
2023-05-08T19:22:50.785Z,16.70
2023-05-08T19:25:17.864Z,16.70
2023-05-08T19:27:45.021Z,16.70
2023-05-08T19:30:12.847Z,16.70
2023-05-08T19:32:40.053Z,16.70
2023-05-08T19:35:08.337Z,16.70
2023-05-08T19:37:36.420Z,16.60
2023-05-08T19:40:04.014Z,16.50
2023-05-08T19:42:31.107Z,16.60
2023-05-08T19:44:58.184Z,16.60
2023-05-08T19:47:25.270Z,16.50
2023-05-08T19:49:54.424Z,16.60
2023-05-08T19:52:21.598Z,16.60
2023-05-08T19:54:48.660Z,16.60
2023-05-08T19:57:15.783Z,16.60
2023-05-08T19:59:42.814Z,16.50
2023-05-08T20:02:09.925Z,16.50
2023-05-08T20:04:48.621Z,16.40
2023-05-08T20:07:24.051Z,16.40
2023-05-08T20:09:51.164Z,16.30
2023-05-08T20:12:18.400Z,16.40
2023-05-08T20:14:45.644Z,16.10
2023-05-08T20:17:12.758Z,16.20
2023-05-08T20:19:39.863Z,16.20
2023-05-08T20:22:06.928Z,16.20
2023-05-08T20:24:34.037Z,16.20
2023-05-08T20:27:01.147Z,16.30
2023-05-08T20:29:28.788Z,16.40
2023-05-08T20:31:55.905Z,16.20
2023-05-08T20:34:23.028Z,16.20
2023-05-08T20:36:50.156Z,16.20
2023-05-08T20:39:17.181Z,16.20
2023-05-08T20:41:44.281Z,16.30
2023-05-08T20:44:12.525Z,16.30
2023-05-08T20:46:40.892Z,16.30
2023-05-08T20:49:08.056Z,16.30
2023-05-08T20:51:36.430Z,16.30
2023-05-08T20:54:03.653Z,16.20
2023-05-08T20:56:30.743Z,16.00
2023-05-08T20:58:57.885Z,16.00
2023-05-08T21:01:25.016Z,16.00
2023-05-08T21:03:52.151Z,16.20
2023-05-08T21:06:19.308Z,16.20
2023-05-08T21:08:46.327Z,16.20
2023-05-08T21:11:13.466Z,16.10
2023-05-08T21:13:40.494Z,16.00
2023-05-08T21:16:08.435Z,16.00
2023-05-08T21:18:35.706Z,16.00
2023-05-08T21:21:02.964Z,15.90
2023-05-08T21:23:31.189Z,15.80
2023-05-08T21:25:58.226Z,15.70
2023-05-08T21:28:25.425Z,15.80
2023-05-08T21:30:52.498Z,15.80
2023-05-08T21:33:19.584Z,15.70
2023-05-08T21:35:47.924Z,15.70
2023-05-08T21:38:14.969Z,15.60
2023-05-08T21:40:42.017Z,15.60
2023-05-08T21:43:09.176Z,15.70
2023-05-08T21:45:36.303Z,15.60
2023-05-08T21:48:03.826Z,15.70
2023-05-08T21:50:31.139Z,15.70
2023-05-08T21:52:58.179Z,15.70
2023-05-08T21:55:25.294Z,15.70
2023-05-08T21:57:53.837Z,15.80
2023-05-08T22:00:21.297Z,15.80
2023-05-08T22:02:48.464Z,15.70
2023-05-08T22:05:15.835Z,15.80
2023-05-08T22:07:43.089Z,15.70
2023-05-08T22:10:11.721Z,15.50
2023-05-08T22:12:38.855Z,15.60
2023-05-08T22:15:14.913Z,15.50
2023-05-08T22:17:50.674Z,15.50
2023-05-08T22:20:18.228Z,15.60
2023-05-08T22:22:45.928Z,15.60
2023-05-08T22:25:13.315Z,15.60
2023-05-08T22:27:40.876Z,15.70
2023-05-08T22:30:08.253Z,15.60
2023-05-08T22:32:35.447Z,15.60
2023-05-08T22:35:02.877Z,15.60
2023-05-08T22:37:30.525Z,15.60
2023-05-08T22:39:57.568Z,15.60
2023-05-08T22:42:25.211Z,15.60
2023-05-08T22:44:52.363Z,15.40
2023-05-08T22:47:19.568Z,15.50
2023-05-08T22:49:48.057Z,15.50
2023-05-08T22:52:15.138Z,15.40
2023-05-08T22:54:42.112Z,15.40
2023-05-08T22:57:09.169Z,15.30
2023-05-08T22:59:36.733Z,15.30
2023-05-08T23:02:03.858Z,15.30
2023-05-08T23:04:30.963Z,15.40
2023-05-08T23:06:58.089Z,15.50
2023-05-08T23:09:26.005Z,15.40
2023-05-08T23:11:53.022Z,15.20
2023-05-08T23:14:20.074Z,15.10
2023-05-08T23:16:47.123Z,15.10
2023-05-08T23:19:14.173Z,15.10
2023-05-08T23:21:41.453Z,15.10
2023-05-08T23:24:08.645Z,15.00
2023-05-08T23:26:35.749Z,15.00
2023-05-08T23:29:02.781Z,15.00
2023-05-08T23:31:29.975Z,14.90
2023-05-08T23:33:57.124Z,15.10
2023-05-08T23:36:24.533Z,15.10
2023-05-08T23:38:51.588Z,15.10
2023-05-08T23:41:18.790Z,15.10
2023-05-08T23:43:45.835Z,15.10
2023-05-08T23:46:13.856Z,15.10
2023-05-08T23:48:41.048Z,15.10
2023-05-08T23:51:08.079Z,15.10
2023-05-08T23:53:35.111Z,15.00
2023-05-08T23:56:02.209Z,14.90
2023-05-08T23:58:29.207Z,15.00
